New London, Connecticut
Current Conditions -  °F | °C
As of 9:56 AM on Friday 19 Dec 2014 (Local Time) from KGON Reporting Station
Broken Clouds Broken Clouds  
Wind Chill: 27°   Ceiling: 4600
Heat Index: 36°   Visibility: 8mi
Dew Point: 22°   Wind: 14mph
Humidity: 57%   Direction: 290°WNW
Pressure: 29.99"   Gusts: NA
Location:  41.36°N, 72.1°W
Report Text: KGON 191456Z 29012KT 8SM BKN046 02/M06 A2999 RMK AO2 SLP156 T00221056 53012
Loading
Personal Weather Stations






























Interactive Weather Map New forecast layout! Learn more

10-Day Weather Forecast

Advertisements
Track Severe Weather on mobile